Accueil
METAR-TAF:

METAR-TAF

Aéroports :

Ankara Güvercinlik, Turquie

latitude: 39-56N, longitude: 032-45E, altitude: 819 m

Observation

Le bulletin a été fait il y a 30 minutes, à 21:04 UTC
Vent calme
Température 12°C
Humidité 76%
Pression 1020 hPa
Visibilité 10 km ou plus
Nuages épars à une hauteur de 3500 ft
Nuages fragmentés à une hauteur de 9000 ft

METAR: LTAB 192104Z 00000KT 9999 SCT035 BKN090 12/08 Q1020 RESHRA NOSIG RMK RWY06 02003KT

Heure: 00:34 (21:34 UTC)

Prévision

Le bulletin a été fait il y a 1 heure et 54 minutes, à 19:40 UTC
Prévision valable du 19 à 21 UTC au 20 à 06 UTC
Vent 2 kt de direction variable
Visibilité 10 km ou plus
Nuages épars à une hauteur de 4000 ft
Nuages fragmentés à une hauteur de 10000 ft

TAF: LTAB 191940Z 1921/2006 VRB02KT 9999 SCT040 BKN100

Observations et prévisions météorologiques de plus de 4000 aéroports (messages METAR et TAF).

Les stations disponibles sont représentées par des disques jaunes et rouges sur la carte.

Passer la souris dessus pour voir le nom de la station.

Cliquer dessus pour voir les observations et prévisions météorologiques.

Pour changer de carte: cliquez sur les boutons verts avec une croix noire pour zoomer, sur le bouton vert avec un tiret pour effectuer un zoom arrière, ou sur les flèches vertes pour les cartes adjacentes.


METAR-TAF: